Time;durP1;ratioP1;P1;durP2;ratioP2;P2;SDS_P1;SDS_P2;PMS_P1;PMS_P2;Temp;Humidity;BMP_temperature;BMP_pressure;BME280_temperature;BME280_humidity;BME280_pressure;Samples;Min_cycle;Max_cycle;Signal;HPM_P1;HPM_P2
2023/04/20 00:02:03;;;;;;;1.10;1.00;;;;;;;10.35;100.00;94987.84;5131578;28;20439;-63
2023/04/20 00:04:33;;;;;;;0.50;0.50;;;;;;;10.37;100.00;94978.56;5132240;28;20442;-63
2023/04/20 00:07:01;;;;;;;0.50;0.40;;;;;;;9.74;100.00;94990.75;5131403;28;20466;-63
2023/04/20 00:09:30;;;;;;;0.50;0.50;;;;;;;9.79;100.00;94984.69;5132589;27;20446;-63
2023/04/20 00:11:59;;;;;;;0.87;0.70;;;;;;;9.94;100.00;94980.06;5132294;28;20814;-63
2023/04/20 00:14:27;;;;;;;0.50;0.50;;;;;;;10.25;100.00;94982.59;5132313;27;20435;-63
2023/04/20 00:16:56;;;;;;;0.50;0.50;;;;;;;10.86;100.00;94989.00;5118558;28;20440;-64
2023/04/20 00:19:27;;;;;;;0.73;0.73;;;;;;;10.38;100.00;94974.81;5132113;28;20443;-64
2023/04/20 00:21:56;;;;;;;0.87;0.87;;;;;;;10.06;100.00;94967.31;5132090;28;20438;-64
2023/04/20 00:24:25;;;;;;;0.50;0.40;;;;;;;10.21;100.00;94977.06;5131865;28;20557;-63
2023/04/20 00:26:53;;;;;;;0.40;0.30;;;;;;;10.15;100.00;94967.56;5132176;28;20553;-63
2023/04/20 00:29:22;;;;;;;0.50;0.50;;;;;;;10.11;100.00;94959.34;5131814;28;20445;-63
2023/04/20 00:31:50;;;;;;;0.50;0.50;;;;;;;10.26;100.00;94965.63;5132443;28;20442;-63
2023/04/20 00:34:18;;;;;;;1.07;1.07;;;;;;;10.40;100.00;94961.31;5132250;28;20437;-63
2023/04/20 00:36:46;;;;;;;1.20;0.47;;;;;;;10.00;100.00;94882.91;5132503;27;20779;-64
2023/04/20 00:39:16;;;;;;;0.53;0.40;;;;;;;10.79;100.00;94954.09;5131647;27;20430;-63
2023/04/20 00:41:45;;;;;;;0.50;0.50;;;;;;;11.00;100.00;94946.75;5132120;28;20484;-63
2023/04/20 00:44:13;;;;;;;1.23;0.63;;;;;;;10.40;100.00;94951.47;5132337;27;20878;-63
2023/04/20 00:46:41;;;;;;;0.50;0.50;;;;;;;10.38;100.00;94952.81;5132228;27;20940;-63
2023/04/20 00:49:10;;;;;;;0.77;0.77;;;;;;;10.57;100.00;94951.09;5131819;28;20513;-63
2023/04/20 00:51:38;;;;;;;0.40;0.30;;;;;;;10.66;100.00;94952.06;5131722;28;20478;-63
2023/04/20 00:54:07;;;;;;;0.40;0.40;;;;;;;10.73;100.00;94934.78;5131721;27;20461;-62
2023/04/20 00:56:38;;;;;;;0.50;0.50;;;;;;;10.59;100.00;94933.06;5131777;28;20445;-63
2023/04/20 00:59:07;;;;;;;0.40;0.30;;;;;;;10.38;100.00;94937.72;5131566;28;20448;-62
2023/04/20 01:01:36;;;;;;;0.40;0.30;;;;;;;10.42;100.00;94946.72;5131610;27;20443;-62
2023/04/20 01:04:06;;;;;;;0.40;0.30;;;;;;;10.25;100.00;94942.84;5135338;27;20445;-62
2023/04/20 01:06:35;;;;;;;0.37;0.30;;;;;;;10.41;100.00;94923.94;5135421;27;20495;-63
2023/04/20 01:09:03;;;;;;;0.40;0.23;;;;;;;10.32;100.00;94882.44;5135461;27;20506;-62
2023/04/20 01:11:32;;;;;;;0.47;0.47;;;;;;;10.50;100.00;94942.69;5135098;27;20431;-62
2023/04/20 01:14:01;;;;;;;0.90;0.90;;;;;;;10.60;100.00;94937.31;5135464;27;21005;-62
2023/04/20 01:16:30;;;;;;;0.40;0.30;;;;;;;10.87;100.00;94934.13;5135471;27;20467;-62
2023/04/20 01:18:59;;;;;;;0.97;0.40;;;;;;;10.94;100.00;94927.44;5135414;27;20522;-62
2023/04/20 01:21:27;;;;;;;0.50;0.30;;;;;;;10.95;100.00;94925.59;5135178;27;20439;-62
2023/04/20 01:23:57;;;;;;;0.60;0.53;;;;;;;10.81;100.00;94922.78;5134956;27;20431;-62
2023/04/20 01:26:25;;;;;;;0.60;0.30;;;;;;;11.01;100.00;94935.06;5134859;27;20433;-62
2023/04/20 01:28:53;;;;;;;0.40;0.30;;;;;;;11.00;100.00;94931.63;5134881;27;20567;-62
2023/04/20 01:31:22;;;;;;;0.40;0.30;;;;;;;10.85;100.00;94937.09;5134833;27;20429;-62
2023/04/20 01:33:51;;;;;;;0.57;0.57;;;;;;;10.58;100.00;94937.56;5135401;27;20445;-62
2023/04/20 01:36:19;;;;;;;0.40;0.30;;;;;;;10.69;100.00;94930.31;5134645;27;20467;-62
2023/04/20 01:38:47;;;;;;;0.40;0.30;;;;;;;10.77;100.00;94930.53;5135330;27;20431;-62
2023/04/20 01:41:17;;;;;;;0.30;0.30;;;;;;;10.54;100.00;94935.75;5134602;27;20522;-62
2023/04/20 01:43:45;;;;;;;0.93;0.50;;;;;;;10.28;100.00;94932.50;5131537;27;20437;-62
2023/04/20 01:46:14;;;;;;;13.47;0.57;;;;;;;10.32;100.00;94927.47;5108597;27;20774;-62
2023/04/20 01:48:42;;;;;;;0.40;0.37;;;;;;;10.52;100.00;94922.00;5134525;27;20901;-62
2023/04/20 01:51:10;;;;;;;0.30;0.20;;;;;;;10.78;100.00;94921.50;5134533;27;20972;-62
2023/04/20 01:53:39;;;;;;;0.40;0.40;;;;;;;10.90;100.00;94918.47;5134743;27;20443;-62
2023/04/20 01:56:07;;;;;;;0.60;0.50;;;;;;;10.95;100.00;94915.78;5134618;27;20454;-62
2023/04/20 01:58:37;;;;;;;0.60;0.60;;;;;;;10.90;100.00;94918.47;5134581;27;20510;-62
2023/04/20 02:01:05;;;;;;;0.43;0.40;;;;;;;10.93;100.00;94912.59;5134302;27;20435;-62
2023/04/20 02:03:34;;;;;;;0.30;0.20;;;;;;;10.06;100.00;94921.53;5134271;27;20442;-62
2023/04/20 02:06:02;;;;;;;0.50;0.30;;;;;;;10.11;100.00;94927.56;5134618;27;20476;-62
2023/04/20 02:08:30;;;;;;;0.37;0.30;;;;;;;10.47;100.00;94928.16;5133748;27;20474;-62
2023/04/20 02:10:59;;;;;;;0.40;0.40;;;;;;;10.64;100.00;94925.06;5134347;27;20443;-62
2023/04/20 02:13:27;;;;;;;0.53;0.43;;;;;;;10.75;100.00;94922.03;5133079;27;20427;-62
2023/04/20 02:15:57;;;;;;;0.47;0.30;;;;;;;10.86;100.00;94917.44;5134482;27;20798;-62
2023/04/20 02:18:25;;;;;;;0.40;0.30;;;;;;;10.83;100.00;94923.28;5133807;27;20435;-62
2023/04/20 02:20:53;;;;;;;0.40;0.30;;;;;;;10.60;100.00;94932.00;5134433;27;20433;-62
2023/04/20 02:23:22;;;;;;;0.40;0.30;;;;;;;10.05;100.00;94930.50;5134099;27;20453;-62
2023/04/20 02:25:50;;;;;;;3.23;0.60;;;;;;;10.07;100.00;94937.13;5133810;27;20467;-62
2023/04/20 02:28:18;;;;;;;0.53;0.53;;;;;;;9.75;100.00;94933.34;5133806;27;20466;-62
2023/04/20 02:30:47;;;;;;;0.67;0.43;;;;;;;9.57;100.00;94937.41;5133829;27;20445;-62
2023/04/20 02:33:19;;;;;;;0.67;0.67;;;;;;;9.43;100.00;94928.47;5106780;27;20462;-62
2023/04/20 02:35:48;;;;;;;0.40;0.37;;;;;;;10.05;100.00;94925.22;5133136;27;20443;-61
2023/04/20 02:38:16;;;;;;;1.10;0.50;;;;;;;10.36;100.00;94917.88;5132962;27;20471;-62
2023/04/20 02:40:44;;;;;;;0.50;0.40;;;;;;;10.61;100.00;94931.72;5133019;27;20431;-62
2023/04/20 02:43:13;;;;;;;0.60;0.37;;;;;;;10.67;100.00;94927.97;5133404;27;20438;-62
2023/04/20 02:45:41;;;;;;;0.37;0.30;;;;;;;10.55;100.00;94921.44;5133042;27;20526;-62
2023/04/20 02:48:09;;;;;;;0.47;0.40;;;;;;;10.66;100.00;94931.69;5133287;27;20467;-62
2023/04/20 02:50:39;;;;;;;0.40;0.30;;;;;;;10.66;100.00;94922.94;5132992;27;20868;-62
2023/04/20 02:53:07;;;;;;;0.97;0.97;;;;;;;10.32;100.00;94927.47;5133063;27;20525;-62
2023/04/20 02:55:36;;;;;;;0.50;0.50;;;;;;;10.19;100.00;94934.94;5132975;27;20473;-62
2023/04/20 02:58:04;;;;;;;0.50;0.40;;;;;;;9.99;100.00;94935.03;5133572;27;20878;-62
2023/04/20 03:00:33;;;;;;;0.40;0.30;;;;;;;9.89;100.00;94939.63;5133091;27;21017;-62
2023/04/20 03:03:01;;;;;;;0.40;0.30;;;;;;;9.98;100.00;94933.47;5133413;27;20443;-62
2023/04/20 03:05:30;;;;;;;0.60;0.50;;;;;;;10.01;100.00;94940.88;5132988;27;20431;-62
2023/04/20 03:07:59;;;;;;;0.67;0.67;;;;;;;10.08;100.00;94932.63;5133208;27;20946;-62
2023/04/20 03:10:28;;;;;;;0.43;0.43;;;;;;;10.07;100.00;94942.41;5132671;27;20523;-62
2023/04/20 03:12:56;;;;;;;0.40;0.30;;;;;;;10.05;100.00;94946.41;5132562;27;20522;-62
2023/04/20 03:15:25;;;;;;;0.40;0.40;;;;;;;9.96;100.00;94935.63;5132964;27;20969;-62
2023/04/20 03:17:53;;;;;;;0.60;0.60;;;;;;;9.96;100.00;94938.25;5132388;27;20449;-61
2023/04/20 03:20:21;;;;;;;0.47;0.30;;;;;;;9.98;100.00;94943.28;5132918;27;20467;-61
2023/04/20 03:22:49;;;;;;;0.40;0.30;;;;;;;9.94;100.00;94940.38;5132242;27;20977;-61
2023/04/20 03:25:20;;;;;;;0.33;0.20;;;;;;;9.77;100.00;94942.59;5132574;27;20561;-61
2023/04/20 03:27:48;;;;;;;0.43;0.27;;;;;;;9.64;100.00;94942.41;5132629;27;20435;-61
2023/04/20 03:30:17;;;;;;;0.90;0.77;;;;;;;9.61;100.00;94949.03;5133086;27;20557;-60
2023/04/20 03:32:45;;;;;;;0.40;0.27;;;;;;;9.59;100.00;94944.00;5131944;27;20526;-60
2023/04/20 03:35:13;;;;;;;0.30;0.27;;;;;;;9.67;100.00;94947.94;5132814;27;20827;-60
2023/04/20 03:37:42;;;;;;;0.40;0.30;;;;;;;9.64;100.00;94937.88;5132557;27;20564;-60
2023/04/20 03:40:11;;;;;;;0.40;0.30;;;;;;;9.59;100.00;94937.91;5121337;27;20924;-61
2023/04/20 03:42:41;;;;;;;0.50;0.47;;;;;;;9.56;100.00;94947.19;5130875;27;20831;-61
2023/04/20 03:45:10;;;;;;;0.40;0.30;;;;;;;9.56;100.00;94957.75;5132632;27;20620;-60
2023/04/20 03:47:38;;;;;;;0.47;0.40;;;;;;;9.61;100.00;94951.69;5132312;27;20431;-61
2023/04/20 03:50:07;;;;;;;0.50;0.30;;;;;;;9.54;100.00;94953.81;5132706;27;20900;-61
2023/04/20 03:52:36;;;;;;;0.50;0.50;;;;;;;9.56;100.00;94947.19;5132776;27;20877;-61
2023/04/20 03:55:05;;;;;;;1.53;1.07;;;;;;;9.67;100.00;94947.94;5132258;27;20945;-61
2023/04/20 03:57:33;;;;;;;0.40;0.30;;;;;;;9.56;100.00;94917.31;5132845;27;20449;-61
2023/04/20 04:00:03;;;;;;;0.43;0.37;;;;;;;9.79;100.00;94955.56;5132194;27;20818;-59
2023/04/20 04:02:33;;;;;;;0.83;0.73;;;;;;;9.52;100.00;94950.66;5132422;28;20510;-60
2023/04/20 04:05:05;;;;;;;1.57;0.87;;;;;;;9.70;100.00;94957.97;5132119;28;20812;-60
2023/04/20 04:07:34;;;;;;;0.53;0.53;;;;;;;9.83;100.00;94951.31;5132366;28;20990;-60
2023/04/20 04:10:03;;;;;;;0.77;0.77;;;;;;;9.83;100.00;94960.03;5131764;28;21050;-60
2023/04/20 04:12:32;;;;;;;0.60;0.60;;;;;;;9.83;100.00;94956.59;5132350;27;20454;-60
2023/04/20 04:15:00;;;;;;;0.40;0.40;;;;;;;9.43;100.00;94899.38;5132127;28;20472;-59
2023/04/20 04:17:30;;;;;;;1.33;1.23;;;;;;;9.87;100.00;94957.63;5132448;28;20449;-60
2023/04/20 04:19:58;;;;;;;1.33;0.60;;;;;;;9.98;100.00;94965.25;5132195;28;21003;-60
2023/04/20 04:22:26;;;;;;;0.93;0.90;;;;;;;10.08;100.00;94970.50;5131582;27;20442;-60
2023/04/20 04:24:57;;;;;;;0.60;0.30;;;;;;;10.14;100.00;94974.69;5130810;27;20473;-60
2023/04/20 04:27:28;;;;;;;1.30;1.13;;;;;;;10.02;100.00;94982.16;5132379;28;20485;-61
2023/04/20 04:29:56;;;;;;;0.80;0.80;;;;;;;9.65;100.00;94983.66;5131382;28;21061;-60
2023/04/20 04:32:25;;;;;;;2.23;2.00;;;;;;;9.93;100.00;94977.72;5131980;28;20431;-60
2023/04/20 04:34:55;;;;;;;7.40;2.20;;;;;;;10.08;100.00;94978.44;5132087;28;20629;-59
2023/04/20 04:37:23;;;;;;;6.00;0.60;;;;;;;9.72;100.00;94950.56;5133129;27;20477;-60
2023/04/20 04:39:51;;;;;;;0.50;0.40;;;;;;;10.35;100.00;94979.91;5135843;27;20449;-60
2023/04/20 04:42:20;;;;;;;1.00;1.00;;;;;;;10.24;100.00;94994.25;5135607;27;20439;-60
2023/04/20 04:44:50;;;;;;;1.03;0.90;;;;;;;10.30;100.00;94986.00;5135625;27;20438;-61
2023/04/20 04:47:20;;;;;;;0.97;0.97;;;;;;;10.47;100.00;94985.63;5135247;27;20439;-61
2023/04/20 04:49:49;;;;;;;0.90;0.90;;;;;;;10.68;100.00;94973.78;5135242;27;20984;-61
2023/04/20 04:52:19;;;;;;;0.70;0.53;;;;;;;10.56;100.00;94976.81;5135367;27;20434;-62
2023/04/20 04:54:48;;;;;;;2.20;2.10;;;;;;;10.69;100.00;94975.38;5135493;27;20466;-62
2023/04/20 04:57:16;;;;;;;0.50;0.50;;;;;;;10.83;100.00;94974.47;5135553;27;20521;-61
2023/04/20 04:59:44;;;;;;;3.07;1.20;;;;;;;10.94;100.00;94975.16;5135925;27;20434;-61
2023/04/20 05:02:13;;;;;;;0.63;0.63;;;;;;;10.97;100.00;94977.25;5134938;27;20439;-61
2023/04/20 05:04:42;;;;;;;1.63;1.53;;;;;;;10.97;100.00;94971.97;5135278;27;20438;-61
2023/04/20 05:07:10;;;;;;;0.50;0.47;;;;;;;11.01;100.00;94972.97;5135335;27;20806;-61
2023/04/20 05:09:40;;;;;;;0.60;0.50;;;;;;;11.01;100.00;94972.16;5135133;27;20505;-61
2023/04/20 05:12:09;;;;;;;0.40;0.33;;;;;;;11.26;100.00;94985.19;5135674;27;20843;-61
2023/04/20 05:14:37;;;;;;;1.57;1.47;;;;;;;10.93;100.00;94975.44;5134842;27;20530;-61
2023/04/20 05:17:05;;;;;;;0.90;0.90;;;;;;;11.08;100.00;94978.72;5134971;27;20813;-61
2023/04/20 05:19:34;;;;;;;0.90;0.80;;;;;;;10.54;100.00;94893.38;5134933;27;20441;-61
2023/04/20 05:22:02;;;;;;;1.07;1.07;;;;;;;11.40;100.00;94978.94;5135162;27;20985;-61
2023/04/20 05:24:30;;;;;;;0.50;0.47;;;;;;;11.58;100.00;94973.97;5134409;27;20462;-60
2023/04/20 05:27:00;;;;;;;0.83;0.83;;;;;;;11.42;100.00;94976.00;5135100;27;20489;-60
2023/04/20 05:29:28;;;;;;;0.77;0.60;;;;;;;11.40;100.00;94978.16;5134440;27;20902;-60
2023/04/20 05:31:57;;;;;;;0.60;0.60;;;;;;;11.76;100.00;94978.56;5134900;27;20522;-60
2023/04/20 05:34:25;;;;;;;1.43;1.13;;;;;;;11.71;100.00;94983.94;5134596;27;20442;-60
2023/04/20 05:36:55;;;;;;;3.73;0.83;;;;;;;10.91;100.00;94835.19;5134671;27;20947;-60
2023/04/20 05:39:24;;;;;;;1.40;1.30;;;;;;;11.11;100.00;94993.28;5134011;27;20435;-60
2023/04/20 05:41:52;;;;;;;1.47;1.37;;;;;;;9.63;100.00;94814.63;5134397;27;20431;-60
2023/04/20 05:44:22;;;;;;;1.57;1.47;;;;;;;11.21;100.00;94994.00;5134707;27;20457;-60
2023/04/20 05:46:50;;;;;;;1.80;1.70;;;;;;;11.48;100.00;94994.22;5134737;27;20456;-60
2023/04/20 05:49:18;;;;;;;0.80;0.70;;;;;;;11.74;100.00;94988.69;5132985;27;20935;-61
2023/04/20 05:51:46;;;;;;;1.33;1.23;;;;;;;11.59;100.00;94992.25;5133872;27;20466;-61
2023/04/20 05:54:15;;;;;;;1.33;1.27;;;;;;;11.85;100.00;94968.88;5134214;27;20458;-60
2023/04/20 05:56:43;;;;;;;0.83;0.40;;;;;;;12.18;100.00;94983.06;5134105;27;21131;-62
2023/04/20 05:59:11;;;;;;;0.57;0.57;;;;;;;11.81;100.00;94986.47;5134262;27;20435;-61
2023/04/20 06:01:41;;;;;;;0.50;0.50;;;;;;;12.06;100.00;94981.63;5134587;27;20867;-61
2023/04/20 06:04:10;;;;;;;0.70;0.50;;;;;;;11.99;100.00;94983.81;5133919;27;20442;-61
2023/04/20 06:06:38;;;;;;;1.07;0.50;;;;;;;12.21;100.00;94990.47;5134354;27;20510;-61
2023/04/20 06:09:07;;;;;;;0.83;0.83;;;;;;;12.19;100.00;94976.69;5134080;27;20529;-62
2023/04/20 06:11:35;;;;;;;0.40;0.40;;;;;;;12.28;100.00;94980.25;5133861;27;21048;-62
2023/04/20 06:14:03;;;;;;;0.60;0.50;;;;;;;12.51;100.00;94979.38;5134191;27;20470;-62
2023/04/20 06:19:19;;;;;;;0.43;0.33;;;;;;;12.86;100.00;94972.72;5133935;27;20439;-64
2023/04/20 06:21:47;;;;;;;0.47;0.47;;;;;;;13.25;98.31;94975.81;5133932;27;20438;-63
2023/04/20 06:24:16;;;;;;;0.63;0.60;;;;;;;12.98;99.08;94976.50;5120833;27;20885;-64
2023/04/20 06:26:44;;;;;;;1.57;1.47;;;;;;;12.19;95.94;94932.31;5133348;27;20482;-63
2023/04/20 06:29:12;;;;;;;8.53;2.80;;;;;;;12.10;100.00;94992.47;5133699;27;20490;-62
2023/04/20 06:31:41;;;;;;;1.00;0.97;;;;;;;12.30;98.91;94978.91;5134083;27;20489;-63
2023/04/20 06:34:09;;;;;;;0.90;0.73;;;;;;;12.58;97.18;94985.91;5134089;27;20435;-63
2023/04/20 06:36:42;;;;;;;0.87;0.50;;;;;;;13.16;95.14;94990.84;5133713;27;20439;-63
2023/04/20 06:39:11;;;;;;;1.33;1.23;;;;;;;12.67;92.23;94909.72;5132677;27;20442;-64
2023/04/20 06:41:39;;;;;;;2.13;1.23;;;;;;;14.26;89.06;94985.22;5133376;27;20443;-65
2023/04/20 06:44:07;;;;;;;1.63;1.53;;;;;;;14.90;81.85;94981.38;5133521;27;20494;-65
2023/04/20 06:46:36;;;;;;;2.20;0.90;;;;;;;15.74;78.51;94962.66;5133281;27;20443;-65
2023/04/20 06:49:04;;;;;;;3.70;1.53;;;;;;;16.61;75.57;94980.44;5133462;27;20521;-66
2023/04/20 06:51:33;;;;;;;1.90;0.60;;;;;;;16.47;78.00;94981.34;5133076;27;20471;-67
2023/04/20 06:54:03;;;;;;;0.70;0.70;;;;;;;16.72;71.33;94987.06;5134115;27;20521;-65
2023/04/20 06:56:31;;;;;;;0.70;0.53;;;;;;;17.06;68.27;94989.72;5133011;27;20439;-63
2023/04/20 06:59:02;;;;;;;0.80;0.80;;;;;;;17.43;68.59;94977.50;5133721;27;20511;-62
2023/04/20 07:01:32;;;;;;;0.70;0.67;;;;;;;17.86;67.12;94972.00;5133132;27;20443;-63
2023/04/20 07:04:00;;;;;;;1.20;1.10;;;;;;;17.31;66.40;94977.38;5099366;28;20557;-65
2023/04/20 07:06:29;;;;;;;6.23;0.60;;;;;;;16.45;70.67;94977.41;5126500;27;20521;-64
2023/04/20 07:08:57;;;;;;;0.83;0.50;;;;;;;16.38;70.04;94982.47;5121163;27;20435;-65
2023/04/20 07:11:27;;;;;;;1.10;0.50;;;;;;;17.01;68.38;94982.63;5132699;27;20473;-65
2023/04/20 07:13:55;;;;;;;1.17;1.07;;;;;;;16.77;67.83;94986.91;5132819;27;20443;-66
2023/04/20 07:16:24;;;;;;;0.50;0.40;;;;;;;16.91;68.93;94985.63;5132057;27;20949;-65
2023/04/20 07:18:52;;;;;;;1.10;0.70;;;;;;;15.44;69.27;94812.03;5133039;27;20435;-66
2023/04/20 07:21:20;;;;;;;0.70;0.70;;;;;;;16.46;68.54;94985.16;5132659;27;20530;-68
2023/04/20 07:23:49;;;;;;;1.23;1.00;;;;;;;16.54;69.51;94983.59;5132760;27;20427;-64
2023/04/20 07:26:17;;;;;;;1.53;0.97;;;;;;;16.50;68.84;94979.94;5132266;27;20923;-62
2023/04/20 07:28:47;;;;;;;1.97;1.87;;;;;;;16.83;66.15;94982.97;5132400;27;20431;-63
2023/04/20 07:31:15;;;;;;;1.40;1.30;;;;;;;16.40;67.33;94991.75;5132378;27;20478;-63
2023/04/20 07:33:44;;;;;;;2.83;0.93;;;;;;;16.75;66.93;94984.53;5132414;27;20426;-63
2023/04/20 07:36:12;;;;;;;0.40;0.40;;;;;;;16.87;67.39;94973.22;5132374;27;20439;-63
2023/04/20 07:38:41;;;;;;;1.03;1.03;;;;;;;16.68;67.83;94978.88;5132824;27;20434;-63
2023/04/20 07:41:09;;;;;;;0.50;0.30;;;;;;;16.49;67.05;94947.03;5132321;27;20435;-64
2023/04/20 07:43:38;;;;;;;2.10;0.40;;;;;;;17.75;64.43;94961.66;5132431;27;20439;-63
2023/04/20 07:46:08;;;;;;;0.50;0.40;;;;;;;18.15;62.28;94954.03;5132685;27;20431;-63
2023/04/20 07:48:36;;;;;;;0.50;0.50;;;;;;;17.17;64.07;94966.06;5132468;27;20435;-63
2023/04/20 07:51:05;;;;;;;0.70;0.70;;;;;;;16.96;66.19;94964.06;5132446;27;20466;-63
2023/04/20 07:53:34;;;;;;;1.33;1.23;;;;;;;17.41;67.00;94967.09;5131972;27;20434;-63
2023/04/20 07:56:02;;;;;;;1.63;0.60;;;;;;;17.21;67.48;94965.09;5132810;27;20435;-63
2023/04/20 07:58:31;;;;;;;0.70;0.70;;;;;;;16.57;65.10;94956.19;5132388;28;20441;-64
2023/04/20 08:00:59;;;;;;;1.23;1.23;;;;;;;17.12;64.76;94959.00;5132842;28;20456;-66
2023/04/20 08:03:28;;;;;;;0.50;0.37;;;;;;;17.20;65.26;94960.09;5131439;28;21015;-63
2023/04/20 08:05:57;;;;;;;0.47;0.47;;;;;;;17.23;65.58;94959.44;5131996;28;20443;-61
2023/04/20 08:08:25;;;;;;;0.40;0.30;;;;;;;17.50;64.80;94954.47;5132088;28;20443;-64
2023/04/20 08:10:56;;;;;;;1.13;0.73;;;;;;;17.06;64.02;94952.22;5132509;27;20434;-64
2023/04/20 08:13:26;;;;;;;0.47;0.40;;;;;;;16.56;66.12;94949.28;5135949;27;20445;-61
2023/04/20 08:15:54;;;;;;;0.60;0.57;;;;;;;16.69;65.55;94951.03;5136225;27;20437;-60
2023/04/20 08:18:23;;;;;;;0.60;0.60;;;;;;;16.55;66.77;94944.25;5135875;27;20431;-58
2023/04/20 08:20:52;;;;;;;1.17;1.10;;;;;;;16.08;68.10;94930.69;5136811;27;20799;-61
2023/04/20 08:23:26;;;;;;;0.80;0.80;;;;;;;16.17;69.58;94931.47;5136244;27;20636;-61
2023/04/20 08:25:55;;;;;;;0.70;0.70;;;;;;;16.04;68.45;94929.72;5136011;27;20462;-61
2023/04/20 08:28:24;;;;;;;0.40;0.40;;;;;;;16.19;68.66;94920.47;5135897;27;20431;-62
2023/04/20 08:30:56;;;;;;;0.40;0.30;;;;;;;16.30;67.27;94922.50;5135910;27;20451;-64
2023/04/20 08:33:25;;;;;;;0.53;0.40;;;;;;;15.68;68.56;94846.34;5135639;27;20466;-62
2023/04/20 08:35:55;;;;;;;0.63;0.60;;;;;;;16.06;68.91;94926.75;5135511;27;20522;-61
2023/04/20 08:38:24;;;;;;;0.70;0.70;;;;;;;15.87;66.33;94919.78;5135948;27;20431;-61
2023/04/20 08:41:01;;;;;;;0.60;0.50;;;;;;;16.07;64.06;94917.59;5135516;27;20435;-61
2023/04/20 08:43:29;;;;;;;0.90;0.50;;;;;;;15.74;64.00;94863.78;5135414;27;20499;-61
2023/04/20 08:46:00;;;;;;;0.50;0.30;;;;;;;16.20;63.98;94914.78;5135872;27;20976;-60
2023/04/20 08:48:34;;;;;;;0.40;0.30;;;;;;;16.30;63.16;94911.03;5136015;27;20459;-61
2023/04/20 08:51:04;;;;;;;0.57;0.57;;;;;;;16.66;61.88;94914.19;5135426;27;20881;-61
2023/04/20 08:53:33;;;;;;;2.30;0.40;;;;;;;16.00;60.02;94773.75;5135319;27;20989;-61
2023/04/20 08:56:02;;;;;;;0.40;0.30;;;;;;;16.87;60.32;94907.09;5135606;27;20885;-61
2023/04/20 08:58:32;;;;;;;0.37;0.30;;;;;;;16.84;59.92;94894.34;5135006;27;20939;-61
2023/04/20 09:01:01;;;;;;;0.53;0.47;;;;;;;16.93;60.72;94899.66;5135442;27;20463;-59
2023/04/20 09:03:34;;;;;;;1.60;0.67;;;;;;;17.02;59.95;94885.16;5135168;27;20992;-64
2023/04/20 09:06:05;;;;;;;0.40;0.20;;;;;;;17.23;58.68;94874.50;5135439;27;20521;-63
2023/04/20 09:08:37;;;;;;;0.40;0.30;;;;;;;17.53;60.63;94862.75;5131578;27;20440;-63
2023/04/20 09:11:06;;;;;;;0.73;0.40;;;;;;;17.65;60.09;94881.59;5126527;27;20489;-63
2023/04/20 09:13:34;;;;;;;0.40;0.30;;;;;;;17.82;60.03;94885.28;5136494;27;20535;-63
2023/04/20 09:16:13;;;;;;;0.50;0.50;;;;;;;18.00;60.11;94884.06;5135714;27;20449;-63
2023/04/20 09:18:52;;;;;;;0.40;0.30;;;;;;;18.45;56.36;94878.81;5134988;27;20438;-61
2023/04/20 09:21:22;;;;;;;0.90;0.77;;;;;;;18.30;58.16;94880.22;5134770;27;20442;-61
2023/04/20 09:23:58;;;;;;;12.10;0.80;;;;;;;18.57;58.05;94868.94;5134559;27;20445;-59
2023/04/20 09:26:26;;;;;;;0.67;0.53;;;;;;;19.35;56.15;94877.00;5134570;27;20442;-60
2023/04/20 09:28:54;;;;;;;3.63;0.90;;;;;;;19.93;53.19;94865.03;5134533;27;21001;-60
2023/04/20 09:31:24;;;;;;;0.60;0.60;;;;;;;20.56;51.68;94876.88;5134404;27;20437;-66
2023/04/20 09:34:00;;;;;;;0.57;0.57;;;;;;;21.70;49.83;94860.63;5135026;27;20482;-71
2023/04/20 09:36:39;;;;;;;2.30;0.50;;;;;;;21.53;46.12;94853.66;5134950;27;20821;-69
2023/04/20 09:39:10;;;;;;;0.70;0.60;;;;;;;20.45;53.13;94865.81;5135050;27;20496;-67
2023/04/20 09:41:40;;;;;;;1.77;1.00;;;;;;;19.37;57.34;94862.13;5134690;27;20474;-67
2023/04/20 09:44:10;;;;;;;1.07;0.97;;;;;;;19.20;57.25;94861.53;5134010;27;20427;-66
2023/04/20 09:46:40;;;;;;;0.70;0.70;;;;;;;19.67;57.03;94843.06;5134057;27;20435;-65
2023/04/20 09:49:09;;;;;;;0.73;0.70;;;;;;;19.42;53.90;94804.69;5134014;27;20481;-64
2023/04/20 09:51:43;;;;;;;3.03;1.57;;;;;;;20.83;51.70;94847.25;5134901;27;20431;-67
2023/04/20 09:54:13;;;;;;;0.50;0.50;;;;;;;22.25;49.29;94835.25;5134260;27;20470;-64
2023/04/20 09:56:42;;;;;;;0.90;0.90;;;;;;;22.64;45.25;94839.53;5134228;27;20533;-64
2023/04/20 09:59:12;;;;;;;1.00;1.00;;;;;;;22.87;42.70;94838.81;5134119;27;20503;-64
2023/04/20 10:01:40;;;;;;;0.60;0.57;;;;;;;22.23;44.55;94834.81;5134359;27;20504;-70
2023/04/20 10:04:10;;;;;;;4.93;0.50;;;;;;;21.68;43.90;94729.94;5134362;27;20442;-65
2023/04/20 10:06:52;;;;;;;1.43;1.33;;;;;;;21.55;46.89;94830.97;5134226;27;20431;-68
2023/04/20 10:09:23;;;;;;;1.20;1.10;;;;;;;20.83;44.50;94823.00;5124035;27;20948;-74
2023/04/20 10:11:52;;;;;;;0.47;0.40;;;;;;;21.00;44.82;94832.66;5131465;27;20489;-71
2023/04/20 10:14:24;;;;;;;0.97;0.97;;;;;;;20.94;46.39;94834.06;5134786;27;20470;-72
2023/04/20 10:17:00;;;;;;;0.70;0.53;;;;;;;20.96;44.81;94831.00;5120701;27;20951;-74
2023/04/20 10:19:40;;;;;;;0.40;0.30;;;;;;;20.81;44.62;94819.09;5120438;27;20435;-66
2023/04/20 10:22:14;;;;;;;0.73;0.50;;;;;;;21.03;43.82;94831.19;5134217;27;20514;-64
2023/04/20 10:24:42;;;;;;;0.50;0.40;;;;;;;20.81;44.39;94827.16;5133515;27;21049;-69
2023/04/20 10:27:18;;;;;;;0.50;0.50;;;;;;;19.76;48.60;94817.63;5133484;27;20443;-63
2023/04/20 10:29:46;;;;;;;0.83;0.40;;;;;;;20.04;46.81;94840.00;5133856;27;20434;-64
2023/04/20 10:32:25;;;;;;;0.67;0.67;;;;;;;19.88;48.60;94844.53;5133277;27;21037;-60
2023/04/20 10:35:05;;;;;;;0.57;0.43;;;;;;;19.68;46.68;94842.75;5133428;27;20430;-59
2023/04/20 10:37:35;;;;;;;0.73;0.60;;;;;;;19.44;51.40;94840.06;5133246;27;20466;-56
2023/04/20 10:40:04;;;;;;;1.33;1.33;;;;;;;19.34;48.36;94843.97;5133646;27;20449;-56
2023/04/20 10:42:42;;;;;;;0.90;0.70;;;;;;;19.55;49.28;94843.88;5132934;27;20978;-66
2023/04/20 10:45:11;;;;;;;0.50;0.40;;;;;;;19.27;48.96;94853.69;5133695;27;20460;-57
2023/04/20 10:47:40;;;;;;;0.50;0.40;;;;;;;19.57;49.32;94841.63;5133391;27;20435;-57
2023/04/20 10:50:10;;;;;;;0.40;0.30;;;;;;;19.82;49.63;94837.78;5133254;27;20496;-58
2023/04/20 10:52:42;;;;;;;0.40;0.30;;;;;;;19.43;51.60;94851.94;5106517;27;20990;-59
2023/04/20 10:55:19;;;;;;;1.00;0.80;;;;;;;19.48;50.04;94844.44;5133067;27;20942;-59
2023/04/20 10:57:47;;;;;;;0.80;0.60;;;;;;;18.91;52.23;94863.25;5133432;27;20537;-59
2023/04/20 11:00:17;;;;;;;0.40;0.20;;;;;;;18.52;53.97;94869.16;5133208;27;21016;-60
2023/04/20 11:02:49;;;;;;;0.40;0.37;;;;;;;18.48;53.69;94865.56;5133177;27;20964;-60
2023/04/20 11:05:19;;;;;;;0.57;0.50;;;;;;;18.54;53.75;94840.13;5133150;27;20953;-60
2023/04/20 11:07:51;;;;;;;0.50;0.40;;;;;;;18.98;52.79;94862.69;5133175;27;20439;-60
2023/04/20 11:10:20;;;;;;;0.70;0.70;;;;;;;19.37;49.44;94864.81;5132823;27;20466;-60
2023/04/20 11:12:49;;;;;;;0.50;0.50;;;;;;;19.63;46.14;94861.81;5132705;27;20443;-60
2023/04/20 11:15:18;;;;;;;0.43;0.37;;;;;;;19.66;46.70;94866.50;5106301;27;20439;-60
2023/04/20 11:17:46;;;;;;;0.90;0.90;;;;;;;19.33;46.81;94857.72;5132243;27;20435;-61
2023/04/20 11:20:17;;;;;;;0.77;0.70;;;;;;;18.79;47.54;94857.88;5132392;27;20446;-61
2023/04/20 11:22:58;;;;;;;0.40;0.40;;;;;;;19.07;47.13;94854.56;5131959;27;20447;-60
2023/04/20 11:25:27;;;;;;;0.50;0.50;;;;;;;19.02;47.82;94850.97;5131924;27;20986;-60
2023/04/20 11:28:06;;;;;;;1.73;0.70;;;;;;;18.47;46.53;94853.25;5131912;27;20443;-61
2023/04/20 11:30:40;;;;;;;4.63;3.13;;;;;;;18.94;46.97;94849.19;5132644;27;20478;-61
2023/04/20 11:33:08;;;;;;;2.63;0.50;;;;;;;19.58;45.74;94843.97;5131906;27;20522;-61
2023/04/20 11:35:37;;;;;;;0.70;0.67;;;;;;;19.59;45.83;94847.44;5132624;27;20939;-61
2023/04/20 11:38:08;;;;;;;1.40;0.80;;;;;;;19.48;46.86;94822.91;5132276;27;20518;-60
2023/04/20 11:40:36;;;;;;;0.50;0.50;;;;;;;19.40;45.02;94801.56;5132762;27;20526;-60
2023/04/20 11:43:05;;;;;;;1.27;1.17;;;;;;;20.24;43.48;94839.06;5133065;27;20519;-60